Daihatsumaru — JD2764 — position and weather

sailwx.info

Track history (hours):
 
Tides and Currents Weather Stations Pressure Air Temp Water Temp Dewpoint Dewpoint Depression Visibility Wind Speed Wind Dir Waves Ship Positions

Daihatsumaru

Last reported at 2017-May-25 06:00 UTC. Time now 2017-May-26 13:09 UTC.
Position N 34°36' E 134°55'.

Length 106 m; draft 4.5 m.

Type: Cargo ship. MMSI: 431000701.

Date/timePositionNaut miles runAvg speedWind from/ knotsBaromVisibWave heightAir tempDewpointWater temp
2017-May-25 06:00N 34°36' E 134°55'611.8
2017-May-25 05:30N 34°37' E 135°02'612.7
2017-May-25 05:00N 34°36' E 135°10'714.8
2017-May-25 04:30N 34°38' E 135°19'5 9.4
2017-May-25 04:00N 34°41' E 135°23'0 0.0
2017-May-25 03:30N 34°41' E 135°23'0 0.0
2017-May-25 03:01N 34°41' E 135°23'0 0.0
2017-May-25 02:30N 34°41' E 135°23'0 0.0
2017-May-25 02:01N 34°41' E 135°23'0 0.0
2017-May-25 01:31N 34°41' E 135°23'0 0.0
2017-May-25 01:01N 34°41' E 135°23'0 0.0
2017-May-25 00:30N 34°41' E 135°23'0 0.0
2017-May-25 00:00N 34°41' E 135°23'0 0.0
2017-May-24 23:30N 34°41' E 135°23'0 0.0
2017-May-24 23:01N 34°41' E 135°23'0 0.0
2017-May-24 22:30N 34°41' E 135°23'3 6.2
2017-May-24 22:00N 34°40' E 135°20'0 0.0
2017-May-24 21:30N 34°40' E 135°20'0 0.0
2017-May-24 21:00N 34°40' E 135°20'0 0.0
2017-May-24 20:30N 34°40' E 135°20'0 0.0
2017-May-24 20:00N 34°40' E 135°20'0 0.0
2017-May-24 19:30N 34°40' E 135°20'0 0.1
2017-May-24 19:00N 34°40' E 135°20'0 0.0
2017-May-24 18:30N 34°40' E 135°20'1 1.5
2017-May-24 18:00N 34°39' E 135°20'714.0
2017-May-24 17:30N 34°35' E 135°13'816.0
2017-May-24 17:00N 34°36' E 135°03'916.5
2017-May-24 16:29N 34°34' E 134°53'7 0.2
2017-May-23 05:19N 34°37' E 135°01'411.9
2017-May-23 05:00N 34°36' E 135°05'714.4
2017-May-23 04:31N 34°36' E 135°13'714.8
2017-May-23 04:00N 34°40' E 135°21'2 4.4
2017-May-23 03:30N 34°41' E 135°23'0 0.0
2017-May-23 03:00N 34°41' E 135°23'0 0.0
2017-May-23 02:29N 34°41' E 135°23'0 0.0
2017-May-23 02:00N 34°41' E 135°23'0 0.1
2017-May-23 01:31N 34°41' E 135°23'0 0.1
2017-May-23 01:01N 34°41' E 135°23'0 0.0
2017-May-23 00:30N 34°41' E 135°23'0 0.0
2017-May-23 00:00N 34°41' E 135°23'0 0.0
2017-May-22 23:30N 34°41' E 135°23'0 0.0
2017-May-22 23:01N 34°41' E 135°23'3 5.5
2017-May-22 22:30N 34°40' E 135°21'0 0.8
2017-May-22 22:00N 34°39' E 135°20'0 0.0
2017-May-22 21:30N 34°39' E 135°20'0 0.0
2017-May-22 21:00N 34°39' E 135°20'0 0.0
2017-May-22 20:30N 34°39' E 135°20'0 0.0
2017-May-22 20:00N 34°39' E 135°20'0 0.0
2017-May-22 19:30N 34°39' E 135°20'0 0.0
2017-May-22 19:00N 34°39' E 135°20'0 0.1
2017-May-22 18:30N 34°39' E 135°20'4 8.2
2017-May-22 18:00N 34°37' E 135°17'714.8
2017-May-22 17:30N 34°35' E 135°08'815.7
2017-May-22 17:00N 34°37' E 134°59'3 0.1
2017-May-21 05:29N 34°36' E 134°55'713.9
2017-May-21 05:00N 34°36' E 135°03'714.9
2017-May-21 04:30N 34°37' E 135°12'714.8
2017-May-21 04:00N 34°39' E 135°20'3 6.6
2017-May-21 03:30N 34°41' E 135°23'0 0.0
2017-May-21 03:00N 34°41' E 135°23'0 0.0
2017-May-21 02:30N 34°41' E 135°23'0 0.0
2017-May-21 02:00N 34°41' E 135°23'0 0.0
2017-May-21 01:30N 34°41' E 135°23'0 0.0
2017-May-21 01:00N 34°41' E 135°23'0 0.0
2017-May-21 00:30N 34°41' E 135°23'0 0.0
2017-May-21 00:00N 34°41' E 135°23'0 0.0
2017-May-20 23:30N 34°41' E 135°23'0 0.0
2017-May-20 23:00N 34°41' E 135°23'0 0.0
2017-May-20 22:30N 34°41' E 135°23'0 0.0
2017-May-20 22:00N 34°41' E 135°23'0 0.0
2017-May-20 21:30N 34°41' E 135°23'0 0.0
2017-May-20 21:00N 34°41' E 135°23'0 0.0
2017-May-20 20:30N 34°41' E 135°23'0 0.0
2017-May-20 20:00N 34°41' E 135°23'0 0.0
2017-May-20 19:30N 34°41' E 135°23'0 0.0
2017-May-20 19:00N 34°41' E 135°23'0 0.0
2017-May-20 18:30N 34°41' E 135°23'0 0.0
2017-May-20 18:00N 34°41' E 135°23'0 0.0
2017-May-20 17:30N 34°41' E 135°23'0 0.0
2017-May-20 17:00N 34°41' E 135°23'0 0.0
2017-May-20 16:30N 34°41' E 135°23'0 0.0
2017-May-20 16:00N 34°41' E 135°23'0 0.0
2017-May-20 15:30N 34°41' E 135°23'0 0.0
2017-May-20 15:00N 34°41' E 135°23'0 0.0
2017-May-20 14:30N 34°41' E 135°23'0 0.0
2017-May-20 13:30N 34°41' E 135°23'0 0.0
2017-May-20 13:00N 34°41' E 135°23'0 0.0
2017-May-20 12:30N 34°41' E 135°23'0 0.0
2017-May-20 12:00N 34°41' E 135°23'0 0.0
2017-May-20 11:30N 34°41' E 135°23'0 0.0
2017-May-20 10:59N 34°41' E 135°23'0 0.0
2017-May-20 10:30N 34°41' E 135°23'0 0.0
2017-May-20 10:00N 34°41' E 135°23'0 0.0
2017-May-20 09:30N 34°41' E 135°23'0 0.0
2017-May-20 09:00N 34°41' E 135°23'0 0.0
2017-May-20 08:30N 34°41' E 135°23'0 0.0
2017-May-20 08:00N 34°41' E 135°23'0 0.0
2017-May-20 07:30N 34°41' E 135°23'0 0.0
2017-May-20 07:00N 34°41' E 135°23'0 0.0
2017-May-20 06:30N 34°41' E 135°23'0 0.0
2017-May-20 06:00N 34°41' E 135°23'0 0.0
2017-May-20 05:30N 34°41' E 135°23'0 0.0
2017-May-20 05:00N 34°41' E 135°23'0 0.0
2017-May-20 04:29N 34°41' E 135°23'0 0.0
2017-May-20 04:00N 34°41' E 135°23'0 0.0
2017-May-20 03:30N 34°41' E 135°23'0 0.0
2017-May-20 03:00N 34°41' E 135°23'0 0.0
2017-May-20 02:30N 34°41' E 135°23'0 0.0
2017-May-20 02:00N 34°41' E 135°23'0 0.0
2017-May-20 01:30N 34°41' E 135°23'0 0.0
2017-May-20 01:00N 34°41' E 135°23'0 0.0
2017-May-20 00:30N 34°41' E 135°23'0 0.0
2017-May-20 00:00N 34°41' E 135°23'0 0.0
2017-May-19 23:30N 34°41' E 135°23'3 5.6
2017-May-19 23:00N 34°40' E 135°20'0 0.1
2017-May-19 22:30N 34°40' E 135°20'0 0.0
2017-May-19 22:00N 34°40' E 135°20'0 0.0
2017-May-19 21:30N 34°40' E 135°20'0 0.0
2017-May-19 21:00N 34°40' E 135°20'0 0.0
2017-May-19 20:30N 34°40' E 135°20'0 0.0
2017-May-19 20:00N 34°40' E 135°20'1 1.9
2017-May-19 19:30N 34°39' E 135°20'713.7
2017-May-19 19:00N 34°35' E 135°13'714.2
2017-May-19 18:30N 34°35' E 135°04'611.3
2017-May-19 18:00N 34°37' E 134°58'713.2
2017-May-19 17:29N 34°34' E 134°50'4 0.1
2017-May-18 05:52N 34°36' E 134°55'515.2
2017-May-18 05:30N 34°37' E 135°01'815.3
2017-May-18 05:00N 34°36' E 135°10'714.8
2017-May-18 04:30N 34°39' E 135°19'5 8.5
2017-May-18 03:59N 34°41' E 135°23'0 0.0
2017-May-18 03:30N 34°41' E 135°23'0 0.0
2017-May-18 03:00N 34°41' E 135°23'0 0.0
2017-May-18 02:30N 34°41' E 135°23'0 0.0
2017-May-18 02:00N 34°41' E 135°23'0 0.0
2017-May-18 01:30N 34°41' E 135°23'0 0.0
2017-May-18 01:00N 34°41' E 135°23'0 0.0
2017-May-18 00:30N 34°41' E 135°23'0 0.0
2017-May-17 23:59N 34°41' E 135°23'0 0.0
2017-May-17 23:28N 34°41' E 135°23'0 0.0
2017-May-17 23:00N 34°41' E 135°23'0 0.0
2017-May-17 22:30N 34°41' E 135°23'3 6.5
2017-May-17 22:00N 34°39' E 135°20'0 0.1
2017-May-17 21:30N 34°39' E 135°20'0 0.0
2017-May-17 21:00N 34°39' E 135°20'0 0.1
2017-May-17 20:30N 34°39' E 135°20'611.0
2017-May-17 20:00N 34°36' E 135°15'714.4
2017-May-17 19:30N 34°35' E 135°06'714.4
2017-May-17 19:00N 34°37' E 134°58'1 0.0
2017-May-16 05:46N 34°37' E 134°57'413.5
2017-May-16 05:29N 34°37' E 135°01'713.9
2017-May-16 05:00N 34°36' E 135°10'714.7
2017-May-16 04:30N 34°39' E 135°18'5 9.7
2017-May-16 03:59N 34°41' E 135°23'0 0.0
2017-May-16 03:30N 34°41' E 135°23'0 0.0
2017-May-16 03:00N 34°41' E 135°23'0 0.0
2017-May-16 02:30N 34°41' E 135°23'0 0.0
2017-May-16 02:00N 34°41' E 135°23'0 0.0
2017-May-16 01:30N 34°41' E 135°23'0 0.0
2017-May-16 01:00N 34°41' E 135°23'0 0.1
2017-May-16 00:29N 34°41' E 135°23'0 0.1
2017-May-16 00:00N 34°41' E 135°23'0 0.1
2017-May-15 23:30N 34°41' E 135°23'0 0.1
2017-May-15 23:00N 34°41' E 135°23'3 6.2
2017-May-15 22:30N 34°40' E 135°20'0 0.2
2017-May-15 22:00N 34°40' E 135°20'0 0.0
2017-May-15 21:30N 34°40' E 135°20'0 0.0
2017-May-15 21:00N 34°40' E 135°20'0 0.0
2017-May-15 20:30N 34°40' E 135°20'0 0.0
2017-May-15 20:00N 34°40' E 135°20'1 1.9
2017-May-15 19:30N 34°39' E 135°19'713.9
2017-May-15 19:00N 34°35' E 135°12'714.2
2017-May-15 18:30N 34°35' E 135°03'713.7
2017-May-15 17:59N 34°35' E 134°55'  
Track history (hours):
 
Tides and Currents Weather Stations Pressure Air Temp Water Temp Dewpoint Dewpoint Depression Visibility Wind Speed Wind Dir Waves Ship Positions

Daihatsumaru

Last reported at 2017-May-25 06:00 UTC. Time now 2017-May-26 13:09 UTC.
Position N 34°36' E 134°55'.

Length 106 m; draft 4.5 m.

Type: Cargo ship. MMSI: 431000701.

Date/timePositionNaut miles runAvg speedWind from/ knotsBaromVisibWave heightAir tempDewpointWater temp
2017-May-25 06:00N 34°36' E 134°55'611.8
2017-May-25 05:30N 34°37' E 135°02'612.7
2017-May-25 05:00N 34°36' E 135°10'714.8
2017-May-25 04:30N 34°38' E 135°19'5 9.4
2017-May-25 04:00N 34°41' E 135°23'0 0.0
2017-May-25 03:30N 34°41' E 135°23'0 0.0
2017-May-25 03:01N 34°41' E 135°23'0 0.0
2017-May-25 02:30N 34°41' E 135°23'0 0.0
2017-May-25 02:01N 34°41' E 135°23'0 0.0
2017-May-25 01:31N 34°41' E 135°23'0 0.0
2017-May-25 01:01N 34°41' E 135°23'0 0.0
2017-May-25 00:30N 34°41' E 135°23'0 0.0
2017-May-25 00:00N 34°41' E 135°23'0 0.0
2017-May-24 23:30N 34°41' E 135°23'0 0.0
2017-May-24 23:01N 34°41' E 135°23'0 0.0
2017-May-24 22:30N 34°41' E 135°23'3 6.2
2017-May-24 22:00N 34°40' E 135°20'0 0.0
2017-May-24 21:30N 34°40' E 135°20'0 0.0
2017-May-24 21:00N 34°40' E 135°20'0 0.0
2017-May-24 20:30N 34°40' E 135°20'0 0.0
2017-May-24 20:00N 34°40' E 135°20'0 0.0
2017-May-24 19:30N 34°40' E 135°20'0 0.1
2017-May-24 19:00N 34°40' E 135°20'0 0.0
2017-May-24 18:30N 34°40' E 135°20'1 1.5
2017-May-24 18:00N 34°39' E 135°20'714.0
2017-May-24 17:30N 34°35' E 135°13'816.0
2017-May-24 17:00N 34°36' E 135°03'916.5
2017-May-24 16:29N 34°34' E 134°53'7 0.2
2017-May-23 05:19N 34°37' E 135°01'411.9
2017-May-23 05:00N 34°36' E 135°05'714.4
2017-May-23 04:31N 34°36' E 135°13'714.8
2017-May-23 04:00N 34°40' E 135°21'2 4.4
2017-May-23 03:30N 34°41' E 135°23'0 0.0
2017-May-23 03:00N 34°41' E 135°23'0 0.0
2017-May-23 02:29N 34°41' E 135°23'0 0.0
2017-May-23 02:00N 34°41' E 135°23'0 0.1
2017-May-23 01:31N 34°41' E 135°23'0 0.1
2017-May-23 01:01N 34°41' E 135°23'0 0.0
2017-May-23 00:30N 34°41' E 135°23'0 0.0
2017-May-23 00:00N 34°41' E 135°23'0 0.0
2017-May-22 23:30N 34°41' E 135°23'0 0.0
2017-May-22 23:01N 34°41' E 135°23'3 5.5
2017-May-22 22:30N 34°40' E 135°21'0 0.8
2017-May-22 22:00N 34°39' E 135°20'0 0.0
2017-May-22 21:30N 34°39' E 135°20'0 0.0
2017-May-22 21:00N 34°39' E 135°20'0 0.0
2017-May-22 20:30N 34°39' E 135°20'0 0.0
2017-May-22 20:00N 34°39' E 135°20'0 0.0
2017-May-22 19:30N 34°39' E 135°20'0 0.0
2017-May-22 19:00N 34°39' E 135°20'0 0.1
2017-May-22 18:30N 34°39' E 135°20'4 8.2
2017-May-22 18:00N 34°37' E 135°17'714.8
2017-May-22 17:30N 34°35' E 135°08'815.7
2017-May-22 17:00N 34°37' E 134°59'3 0.1
2017-May-21 05:29N 34°36' E 134°55'713.9
2017-May-21 05:00N 34°36' E 135°03'714.9
2017-May-21 04:30N 34°37' E 135°12'714.8
2017-May-21 04:00N 34°39' E 135°20'3 6.6
2017-May-21 03:30N 34°41' E 135°23'0 0.0
2017-May-21 03:00N 34°41' E 135°23'0 0.0
2017-May-21 02:30N 34°41' E 135°23'0 0.0
2017-May-21 02:00N 34°41' E 135°23'0 0.0
2017-May-21 01:30N 34°41' E 135°23'0 0.0
2017-May-21 01:00N 34°41' E 135°23'0 0.0
2017-May-21 00:30N 34°41' E 135°23'0 0.0
2017-May-21 00:00N 34°41' E 135°23'0 0.0
2017-May-20 23:30N 34°41' E 135°23'0 0.0
2017-May-20 23:00N 34°41' E 135°23'0 0.0
2017-May-20 22:30N 34°41' E 135°23'0 0.0
2017-May-20 22:00N 34°41' E 135°23'0 0.0
2017-May-20 21:30N 34°41' E 135°23'0 0.0
2017-May-20 21:00N 34°41' E 135°23'0 0.0
2017-May-20 20:30N 34°41' E 135°23'0 0.0
2017-May-20 20:00N 34°41' E 135°23'0 0.0
2017-May-20 19:30N 34°41' E 135°23'0 0.0
2017-May-20 19:00N 34°41' E 135°23'0 0.0
2017-May-20 18:30N 34°41' E 135°23'0 0.0
2017-May-20 18:00N 34°41' E 135°23'0 0.0
2017-May-20 17:30N 34°41' E 135°23'0 0.0
2017-May-20 17:00N 34°41' E 135°23'0 0.0
2017-May-20 16:30N 34°41' E 135°23'0 0.0
2017-May-20 16:00N 34°41' E 135°23'0 0.0
2017-May-20 15:30N 34°41' E 135°23'0 0.0
2017-May-20 15:00N 34°41' E 135°23'0 0.0
2017-May-20 14:30N 34°41' E 135°23'0 0.0
2017-May-20 13:30N 34°41' E 135°23'0 0.0
2017-May-20 13:00N 34°41' E 135°23'0 0.0
2017-May-20 12:30N 34°41' E 135°23'0 0.0
2017-May-20 12:00N 34°41' E 135°23'0 0.0
2017-May-20 11:30N 34°41' E 135°23'0 0.0
2017-May-20 10:59N 34°41' E 135°23'0 0.0
2017-May-20 10:30N 34°41' E 135°23'0 0.0
2017-May-20 10:00N 34°41' E 135°23'0 0.0
2017-May-20 09:30N 34°41' E 135°23'0 0.0
2017-May-20 09:00N 34°41' E 135°23'0 0.0
2017-May-20 08:30N 34°41' E 135°23'0 0.0
2017-May-20 08:00N 34°41' E 135°23'0 0.0
2017-May-20 07:30N 34°41' E 135°23'0 0.0
2017-May-20 07:00N 34°41' E 135°23'0 0.0
2017-May-20 06:30N 34°41' E 135°23'0 0.0
2017-May-20 06:00N 34°41' E 135°23'0 0.0
2017-May-20 05:30N 34°41' E 135°23'0 0.0
2017-May-20 05:00N 34°41' E 135°23'0 0.0
2017-May-20 04:29N 34°41' E 135°23'0 0.0
2017-May-20 04:00N 34°41' E 135°23'0 0.0
2017-May-20 03:30N 34°41' E 135°23'0 0.0
2017-May-20 03:00N 34°41' E 135°23'0 0.0
2017-May-20 02:30N 34°41' E 135°23'0 0.0
2017-May-20 02:00N 34°41' E 135°23'0 0.0
2017-May-20 01:30N 34°41' E 135°23'0 0.0
2017-May-20 01:00N 34°41' E 135°23'0 0.0
2017-May-20 00:30N 34°41' E 135°23'0 0.0
2017-May-20 00:00N 34°41' E 135°23'0 0.0
2017-May-19 23:30N 34°41' E 135°23'3 5.6
2017-May-19 23:00N 34°40' E 135°20'0 0.1
2017-May-19 22:30N 34°40' E 135°20'0 0.0
2017-May-19 22:00N 34°40' E 135°20'0 0.0
2017-May-19 21:30N 34°40' E 135°20'0 0.0
2017-May-19 21:00N 34°40' E 135°20'0 0.0
2017-May-19 20:30N 34°40' E 135°20'0 0.0
2017-May-19 20:00N 34°40' E 135°20'1 1.9
2017-May-19 19:30N 34°39' E 135°20'713.7
2017-May-19 19:00N 34°35' E 135°13'714.2
2017-May-19 18:30N 34°35' E 135°04'611.3
2017-May-19 18:00N 34°37' E 134°58'713.2
2017-May-19 17:29N 34°34' E 134°50'4 0.1
2017-May-18 05:52N 34°36' E 134°55'515.2
2017-May-18 05:30N 34°37' E 135°01'815.3
2017-May-18 05:00N 34°36' E 135°10'714.8
2017-May-18 04:30N 34°39' E 135°19'5 8.5
2017-May-18 03:59N 34°41' E 135°23'0 0.0
2017-May-18 03:30N 34°41' E 135°23'0 0.0
2017-May-18 03:00N 34°41' E 135°23'0 0.0
2017-May-18 02:30N 34°41' E 135°23'0 0.0
2017-May-18 02:00N 34°41' E 135°23'0 0.0
2017-May-18 01:30N 34°41' E 135°23'0 0.0
2017-May-18 01:00N 34°41' E 135°23'0 0.0
2017-May-18 00:30N 34°41' E 135°23'0 0.0
2017-May-17 23:59N 34°41' E 135°23'0 0.0
2017-May-17 23:28N 34°41' E 135°23'0 0.0
2017-May-17 23:00N 34°41' E 135°23'0 0.0
2017-May-17 22:30N 34°41' E 135°23'3 6.5
2017-May-17 22:00N 34°39' E 135°20'0 0.1
2017-May-17 21:30N 34°39' E 135°20'0 0.0
2017-May-17 21:00N 34°39' E 135°20'0 0.1
2017-May-17 20:30N 34°39' E 135°20'611.0
2017-May-17 20:00N 34°36' E 135°15'714.4
2017-May-17 19:30N 34°35' E 135°06'714.4
2017-May-17 19:00N 34°37' E 134°58'1 0.0
2017-May-16 05:46N 34°37' E 134°57'413.5
2017-May-16 05:29N 34°37' E 135°01'713.9
2017-May-16 05:00N 34°36' E 135°10'714.7
2017-May-16 04:30N 34°39' E 135°18'5 9.7
2017-May-16 03:59N 34°41' E 135°23'0 0.0
2017-May-16 03:30N 34°41' E 135°23'0 0.0
2017-May-16 03:00N 34°41' E 135°23'0 0.0
2017-May-16 02:30N 34°41' E 135°23'0 0.0
2017-May-16 02:00N 34°41' E 135°23'0 0.0
2017-May-16 01:30N 34°41' E 135°23'0 0.0
2017-May-16 01:00N 34°41' E 135°23'0 0.1
2017-May-16 00:29N 34°41' E 135°23'0 0.1
2017-May-16 00:00N 34°41' E 135°23'0 0.1
2017-May-15 23:30N 34°41' E 135°23'0 0.1
2017-May-15 23:00N 34°41' E 135°23'3 6.2
2017-May-15 22:30N 34°40' E 135°20'0 0.2
2017-May-15 22:00N 34°40' E 135°20'0 0.0
2017-May-15 21:30N 34°40' E 135°20'0 0.0
2017-May-15 21:00N 34°40' E 135°20'0 0.0
2017-May-15 20:30N 34°40' E 135°20'0 0.0
2017-May-15 20:00N 34°40' E 135°20'1 1.9
2017-May-15 19:30N 34°39' E 135°19'713.9
2017-May-15 19:00N 34°35' E 135°12'714.2
2017-May-15 18:30N 34°35' E 135°03'713.7
2017-May-15 17:59N 34°35' E 134°55'  

Dump ship's entire track history